KCON/CON METAR and TAF weather

Enter ICAO airport designator
Station Type Date Time Source
KCON METAR 2021/01/17 18:51 UTC NOAA

KCON 171851Z AUTO 26016G23KT 10SM BKN044 OVC055 04/M04 A2936 RMK AO2 PK WND 25027/1834 SLP945 T00391039


Station Type Date Time Source
KCON Decoded METAR 2021/01/17 18:51 UTC NOAA

Concord, Concord Municipal Airport, NH, United States (KCON) 43-11-43N 071-30-04W 103M
Jan 17, 2021 - 01:51 PM EST / 2021.01.17 1851 UTC
Wind: from the W (260 degrees) at 18 MPH (16 KT) gusting to 26 MPH (23 KT):0
Visibility: 10 mile(s):0
Sky conditions: overcast
Temperature: 39.0 F (3.9 C)
Dew Point: 25.0 F (-3.9 C)
Relative Humidity: 56%
Pressure (altimeter): 29.36 in. Hg (994 hPa)
ob: KCON 171851Z AUTO 26016G23KT 10SM BKN044 OVC055 04/M04 A2936 RMK AO2 PK WND 25027/1834 SLP945 T00391039
cycle: 19

Station Type Date Time Source
KCON TAF 2021/01/17 18:27 UTC NOAA

TAF KCON 171724Z 1718/1818 26016G28KT P6SM BKN040
FM172100 26012G18KT P6SM SCT040
FM180200 25010KT P6SM SCT040

Example: see airport list